createdAt,value
2019-03-16T00:00:02.926Z,0.48
2019-03-16T00:01:03.665Z,0.44
2019-03-16T00:02:02.737Z,0.42
2019-03-16T00:03:03.228Z,0.42
2019-03-16T00:04:03.392Z,0.3
2019-03-16T00:05:03.756Z,0.48
2019-03-16T00:06:03.515Z,0.32
2019-03-16T00:07:03.598Z,0.43
2019-03-16T00:08:03.553Z,0.51
2019-03-16T00:09:03.148Z,0.3
2019-03-16T00:10:03.698Z,0.54
2019-03-16T00:11:03.568Z,0.38
2019-03-16T00:12:04.016Z,0.54
2019-03-16T00:13:03.575Z,0.59
2019-03-16T00:14:03.458Z,0.69
2019-03-16T00:15:02.774Z,0.55
2019-03-16T00:16:03.204Z,0.41
2019-03-16T00:17:03.555Z,0.52
2019-03-16T00:18:03.680Z,0.53
2019-03-16T00:19:03.510Z,0.6
2019-03-16T00:20:03.570Z,0.35
2019-03-16T00:21:03.476Z,0.46
2019-03-16T00:22:03.054Z,0.38
2019-03-16T00:23:03.311Z,0.48
2019-03-16T00:24:03.049Z,0.51
2019-03-16T00:25:03.168Z,0.38
2019-03-16T00:26:02.983Z,0.44
2019-03-16T00:27:03.009Z,0.45
2019-03-16T00:28:03.320Z,0.46
2019-03-16T00:29:02.826Z,0.54
2019-03-16T00:30:02.883Z,0.51
2019-03-16T00:31:02.996Z,0.46
2019-03-16T00:32:13.883Z,0.37
2019-03-16T00:33:02.895Z,0.42
2019-03-16T00:34:02.903Z,0.43
2019-03-16T00:35:03.241Z,0.43
2019-03-16T00:36:02.689Z,0.48
2019-03-16T00:37:03.106Z,0.33
2019-03-16T00:38:02.427Z,0.33
2019-03-16T00:39:02.894Z,0.46
2019-03-16T00:40:03.667Z,0.4
2019-03-16T00:41:02.834Z,0.72
2019-03-16T00:42:03.815Z,0.69
2019-03-16T00:43:02.740Z,0.58
2019-03-16T00:44:03.579Z,0.64
2019-03-16T00:45:03.505Z,0.34
2019-03-16T00:46:03.233Z,0.6
2019-03-16T00:47:03.552Z,0.42
2019-03-16T00:48:03.630Z,0.54
2019-03-16T00:49:03.362Z,0.39
2019-03-16T00:50:03.715Z,0.4
2019-03-16T00:51:03.245Z,0.34
2019-03-16T00:52:03.491Z,0.49
2019-03-16T00:53:03.109Z,0.44
2019-03-16T00:54:03.726Z,0.42
2019-03-16T00:55:03.631Z,0.37
2019-03-16T00:56:03.007Z,0.44
2019-03-16T00:57:03.713Z,0.44
2019-03-16T00:58:03.143Z,0.41
2019-03-16T00:59:03.464Z,0.36
2019-03-16T01:00:03.153Z,0.42
2019-03-16T01:01:03.176Z,0.59
2019-03-16T01:02:02.653Z,0.3
2019-03-16T01:03:03.268Z,0.72
2019-03-16T01:04:03.044Z,0.68
2019-03-16T01:05:03.189Z,0.76
2019-03-16T01:06:02.857Z,0.45
2019-03-16T01:07:02.765Z,0.59
2019-03-16T01:08:03.026Z,0.44
2019-03-16T01:09:03.754Z,0.41
2019-03-16T01:10:03.010Z,0.44
2019-03-16T01:11:03.626Z,0.42
2019-03-16T01:12:02.891Z,0.49
2019-03-16T01:13:03.598Z,0.39
2019-03-16T01:14:02.779Z,0.46
2019-03-16T01:15:03.639Z,0.34
2019-03-16T01:16:03.476Z,0.32
2019-03-16T01:17:03.568Z,0.49
2019-03-16T01:18:03.626Z,0.47
2019-03-16T01:19:03.411Z,0.55
2019-03-16T01:20:03.460Z,0.44
2019-03-16T01:21:03.368Z,0.39
2019-03-16T01:22:02.896Z,0.38
2019-03-16T01:23:03.572Z,0.38
2019-03-16T01:24:01.763Z,0.33
2019-03-16T01:25:02.699Z,0.36
2019-03-16T01:26:03.626Z,0.36
2019-03-16T01:27:03.541Z,0.35
2019-03-16T01:28:02.936Z,0.36
2019-03-16T01:29:03.078Z,0.35
2019-03-16T01:30:03.228Z,0.38
2019-03-16T01:31:03.134Z,0.41
2019-03-16T01:32:02.828Z,0.51
2019-03-16T01:33:02.797Z,0.66
2019-03-16T01:34:02.904Z,0.4
2019-03-16T01:35:02.924Z,0.33
2019-03-16T01:36:03.151Z,0.38
2019-03-16T01:37:03.011Z,0.5
2019-03-16T01:38:03.043Z,0.32
2019-03-16T01:39:02.948Z,0.41
2019-03-16T01:40:02.963Z,0.47
2019-03-16T01:41:02.900Z,0.48
2019-03-16T01:42:03.480Z,0.49
2019-03-16T01:43:02.809Z,0.38
2019-03-16T01:44:02.906Z,0.29
2019-03-16T01:45:02.858Z,0.44
2019-03-16T01:46:03.561Z,0.48
2019-03-16T01:47:02.679Z,0.46
2019-03-16T01:48:02.655Z,0.42
2019-03-16T01:49:02.542Z,0.45
2019-03-16T01:50:03.348Z,0.36
2019-03-16T01:51:03.790Z,0.39
2019-03-16T01:52:03.500Z,0.55
2019-03-16T01:53:03.607Z,0.39
2019-03-16T01:54:02.861Z,0.34
2019-03-16T01:55:02.787Z,0.3
2019-03-16T01:56:03.570Z,0.39
2019-03-16T01:57:03.583Z,0.3
2019-03-16T01:58:02.785Z,0.39
2019-03-16T01:59:03.358Z,0.35
2019-03-16T02:00:02.872Z,0.35
2019-03-16T02:01:03.384Z,0.4
2019-03-16T02:02:03.715Z,0.49
2019-03-16T02:03:03.264Z,0.35
2019-03-16T02:04:03.603Z,0.48
2019-03-16T02:05:03.406Z,0.4
2019-03-16T02:06:03.426Z,0.33
2019-03-16T02:07:03.247Z,0.4
2019-03-16T02:08:03.692Z,0.4
2019-03-16T02:09:03.390Z,0.28
2019-03-16T02:10:03.079Z,0.44
2019-03-16T02:11:02.900Z,0.36
2019-03-16T02:12:03.144Z,0.35
2019-03-16T02:13:03.046Z,0.52
2019-03-16T02:14:02.812Z,0.34
2019-03-16T02:15:03.507Z,0.34
2019-03-16T02:16:11.629Z,0.45
2019-03-16T02:17:02.869Z,0.48
2019-03-16T02:18:03.045Z,0.48
2019-03-16T02:19:03.018Z,0.4
2019-03-16T02:20:02.945Z,0.47
2019-03-16T02:21:03.687Z,0.47
2019-03-16T02:22:02.512Z,0.34
2019-03-16T02:23:02.932Z,0.28
2019-03-16T02:24:03.674Z,0.28
2019-03-16T02:25:03.590Z,0.39
2019-03-16T02:26:02.862Z,0.36
2019-03-16T02:27:03.740Z,0.4
2019-03-16T02:28:02.910Z,0.48
2019-03-16T02:29:03.120Z,0.3
2019-03-16T02:30:03.642Z,0.39
2019-03-16T02:31:03.720Z,0.28
2019-03-16T02:32:03.771Z,0.37
2019-03-16T02:33:13.726Z,0.38
2019-03-16T02:34:03.286Z,0.32
2019-03-16T02:35:03.440Z,0.37
2019-03-16T02:36:03.368Z,0.4
2019-03-16T02:37:02.858Z,0.35
2019-03-16T02:38:03.116Z,0.49
2019-03-16T02:39:03.525Z,0.5
2019-03-16T02:40:03.274Z,0.52
2019-03-16T02:41:03.159Z,0.42
2019-03-16T02:42:02.744Z,0.23
2019-03-16T02:43:03.179Z,0.31
2019-03-16T02:44:03.119Z,0.5
2019-03-16T02:45:02.981Z,0.52
2019-03-16T02:46:02.721Z,0.28
2019-03-16T02:47:02.590Z,0.29
2019-03-16T02:48:02.659Z,0.36
2019-03-16T02:49:02.884Z,0.32
2019-03-16T02:50:02.356Z,0.4
2019-03-16T02:51:03.403Z,0.34
2019-03-16T02:52:03.630Z,0.26
2019-03-16T02:53:03.622Z,0.38
2019-03-16T02:54:03.521Z,0.33
2019-03-16T02:55:03.641Z,0.39
2019-03-16T02:56:03.523Z,0.44
2019-03-16T02:57:03.615Z,0.45
2019-03-16T02:58:03.457Z,0.34
2019-03-16T02:59:03.510Z,0.38
2019-03-16T03:00:03.495Z,0.29
2019-03-16T03:01:03.447Z,0.29
2019-03-16T03:02:03.686Z,0.4
2019-03-16T03:03:03.226Z,0.48
2019-03-16T03:04:03.540Z,0.48
2019-03-16T03:05:03.007Z,0.52
2019-03-16T03:06:03.345Z,0.52
2019-03-16T03:07:03.257Z,0.33
2019-03-16T03:08:02.935Z,0.45
2019-03-16T03:09:03.192Z,0.4
2019-03-16T03:10:03.238Z,0.38
2019-03-16T03:11:02.874Z,0.41
2019-03-16T03:12:03.032Z,0.4
2019-03-16T03:13:02.824Z,0.51
2019-03-16T03:14:03.417Z,0.36
2019-03-16T03:15:03.872Z,0.34
2019-03-16T03:16:02.942Z,0.28
2019-03-16T03:17:02.862Z,0.4
2019-03-16T03:18:03.010Z,0.29
2019-03-16T03:19:03.612Z,0.61
2019-03-16T03:20:02.451Z,0.39
2019-03-16T03:21:02.815Z,0.38
2019-03-16T03:22:03.098Z,0.45
2019-03-16T03:23:03.633Z,0.47
2019-03-16T03:24:03.231Z,0.36
2019-03-16T03:25:03.898Z,0.56
2019-03-16T03:26:03.374Z,0.45
2019-03-16T03:27:03.661Z,0.51
2019-03-16T03:28:03.544Z,0.43
2019-03-16T03:29:03.555Z,0.27
2019-03-16T03:30:03.259Z,0.34
2019-03-16T03:31:03.367Z,0.5
2019-03-16T03:32:03.580Z,0.49
2019-03-16T03:33:03.359Z,0.55
2019-03-16T03:34:03.359Z,0.51
2019-03-16T03:35:03.442Z,0.44
2019-03-16T03:36:03.684Z,0.56
2019-03-16T03:37:02.903Z,0.39
2019-03-16T03:38:03.274Z,0.45
2019-03-16T03:39:03.208Z,0.41
2019-03-16T03:40:03.363Z,0.48
2019-03-16T03:41:02.927Z,0.61
2019-03-16T03:42:02.995Z,0.39
2019-03-16T03:43:02.447Z,0.54
2019-03-16T03:44:02.929Z,0.39
2019-03-16T03:45:02.974Z,0.35
2019-03-16T03:46:02.826Z,0.44
2019-03-16T03:47:03.724Z,0.47
2019-03-16T03:48:03.221Z,0.36
2019-03-16T03:49:02.650Z,0.55
2019-03-16T03:50:02.947Z,0.44
2019-03-16T03:51:02.954Z,0.58
2019-03-16T03:52:02.473Z,0.58
2019-03-16T03:53:03.000Z,0.41
2019-03-16T03:54:03.589Z,0.5
2019-03-16T03:55:02.910Z,0.5
2019-03-16T03:56:03.613Z,0.54
2019-03-16T03:57:03.611Z,0.42
2019-03-16T03:58:03.501Z,0.42
2019-03-16T03:59:03.739Z,0.38
2019-03-16T04:00:03.735Z,0.48
2019-03-16T04:01:02.845Z,0.47
2019-03-16T04:02:03.541Z,0.48
2019-03-16T04:03:03.382Z,0.56
2019-03-16T04:04:16.142Z,0.45
2019-03-16T04:05:03.346Z,0.49
2019-03-16T04:06:03.343Z,0.52
2019-03-16T04:07:03.170Z,0.39
2019-03-16T04:08:03.956Z,0.55
2019-03-16T04:09:02.780Z,0.34
2019-03-16T04:10:03.389Z,0.4
2019-03-16T04:11:02.944Z,0.42
2019-03-16T04:12:02.828Z,0.42
2019-03-16T04:13:03.182Z,0.61
2019-03-16T04:14:03.040Z,0.56
2019-03-16T04:15:03.314Z,0.39
2019-03-16T04:16:03.065Z,0.47
2019-03-16T04:17:02.948Z,0.39
2019-03-16T04:18:02.754Z,0.43
2019-03-16T04:19:02.994Z,0.39
2019-03-16T04:20:02.926Z,0.61
2019-03-16T04:21:02.663Z,0.42
2019-03-16T04:22:02.908Z,0.46
2019-03-16T04:23:03.209Z,0.3
2019-03-16T04:24:02.789Z,0.4
2019-03-16T04:25:03.886Z,0.33
2019-03-16T04:26:03.764Z,0.4
2019-03-16T04:27:16.702Z,0.28
2019-03-16T04:28:03.267Z,0.33
2019-03-16T04:29:03.623Z,0.59
2019-03-16T04:30:03.466Z,0.48
2019-03-16T04:31:03.340Z,0.42
2019-03-16T04:32:02.857Z,0.4
2019-03-16T04:33:03.418Z,0.36
2019-03-16T04:34:03.646Z,0.54
2019-03-16T04:35:03.707Z,0.4
2019-03-16T04:36:03.837Z,0.47
2019-03-16T04:37:03.415Z,0.28
2019-03-16T04:38:03.373Z,0.49
2019-03-16T04:39:03.286Z,0.49
2019-03-16T04:40:03.565Z,0.38
2019-03-16T04:41:03.097Z,0.39
2019-03-16T04:42:02.939Z,0.41
2019-03-16T04:43:03.583Z,0.41
2019-03-16T04:44:03.182Z,0.29
2019-03-16T04:45:02.742Z,0.42
2019-03-16T04:46:03.130Z,0.42
2019-03-16T04:47:03.237Z,0.71
2019-03-16T04:48:02.652Z,0.52
2019-03-16T04:49:03.184Z,0.52
2019-03-16T04:50:03.207Z,0.47
2019-03-16T04:51:03.074Z,0.44
2019-03-16T04:52:02.823Z,0.42
2019-03-16T04:53:02.871Z,0.45
2019-03-16T04:54:02.987Z,0.5
2019-03-16T04:55:03.051Z,0.6
2019-03-16T04:56:03.039Z,0.5
2019-03-16T04:57:02.684Z,0.49
2019-03-16T04:58:02.983Z,0.73
2019-03-16T04:59:02.787Z,0.52
2019-03-16T05:00:03.885Z,0.68
2019-03-16T05:01:03.810Z,0.39
2019-03-16T05:02:03.732Z,0.48
2019-03-16T05:03:03.490Z,0.49
2019-03-16T05:04:02.921Z,0.5
2019-03-16T05:05:03.706Z,0.33
2019-03-16T05:06:02.870Z,0.73
2019-03-16T05:07:03.685Z,0.49
2019-03-16T05:08:03.608Z,0.54
2019-03-16T05:09:03.433Z,0.41
2019-03-16T05:10:03.430Z,0.44
2019-03-16T05:11:03.874Z,0.66
2019-03-16T05:12:03.111Z,0.5
2019-03-16T05:13:03.051Z,0.58
2019-03-16T05:14:03.627Z,0.58
2019-03-16T05:15:03.398Z,0.45
2019-03-16T05:16:03.143Z,0.52
2019-03-16T05:17:03.517Z,0.5
2019-03-16T05:18:03.067Z,0.49
2019-03-16T05:19:03.261Z,0.44
2019-03-16T05:20:03.253Z,0.5
2019-03-16T05:21:02.969Z,0.59
2019-03-16T05:22:03.259Z,0.61
2019-03-16T05:23:02.825Z,0.46
2019-03-16T05:24:03.179Z,0.43
2019-03-16T05:25:03.153Z,0.33
2019-03-16T05:26:02.877Z,0.56
2019-03-16T05:27:02.973Z,0.56
2019-03-16T05:28:03.078Z,0.51
2019-03-16T05:29:02.963Z,0.51
2019-03-16T05:30:03.123Z,0.36
2019-03-16T05:31:02.850Z,0.48
2019-03-16T05:32:03.748Z,0.65
2019-03-16T05:33:03.779Z,0.46
2019-03-16T05:34:03.307Z,0.69
2019-03-16T05:35:03.835Z,0.45
2019-03-16T05:36:03.261Z,0.58
2019-03-16T05:37:03.544Z,0.58
2019-03-16T05:38:03.632Z,0.36
2019-03-16T05:39:03.526Z,1.41
2019-03-16T05:40:03.322Z,0.64
2019-03-16T05:41:03.402Z,0.65
2019-03-16T05:42:05.568Z,0.52
2019-03-16T05:43:03.695Z,0.49
2019-03-16T05:44:03.111Z,0.5
2019-03-16T05:45:03.290Z,0.48
2019-03-16T05:46:02.978Z,0.73
2019-03-16T05:47:02.759Z,0.53
2019-03-16T05:48:03.194Z,0.54
2019-03-16T05:49:03.156Z,0.65
2019-03-16T05:50:02.962Z,0.6
2019-03-16T05:51:02.883Z,0.49
2019-03-16T05:52:02.800Z,0.7
2019-03-16T05:53:03.189Z,0.86
2019-03-16T05:54:03.126Z,0.74
2019-03-16T05:55:03.045Z,0.95
2019-03-16T05:56:03.066Z,0.65
2019-03-16T05:57:02.893Z,0.71
2019-03-16T05:58:02.921Z,0.51
2019-03-16T05:59:02.713Z,0.62
2019-03-16T06:00:03.000Z,0.59
2019-03-16T06:01:02.796Z,0.69
2019-03-16T06:02:02.554Z,0.43
2019-03-16T06:03:02.895Z,0.45
2019-03-16T06:04:03.694Z,0.61
2019-03-16T06:05:11.279Z,0.5
2019-03-16T06:06:03.640Z,0.53
2019-03-16T06:07:03.475Z,0.65
2019-03-16T06:08:03.479Z,0.38
2019-03-16T06:09:03.458Z,0.4
2019-03-16T06:10:03.405Z,0.44
2019-03-16T06:11:03.281Z,0.48
2019-03-16T06:12:03.551Z,0.66
2019-03-16T06:13:03.574Z,0.52
2019-03-16T06:14:03.447Z,0.62
2019-03-16T06:15:03.333Z,0.82
2019-03-16T06:16:03.454Z,0.47
2019-03-16T06:17:03.371Z,0.48
2019-03-16T06:18:02.985Z,0.52
2019-03-16T06:19:03.135Z,0.55
2019-03-16T06:20:03.546Z,0.55
2019-03-16T06:21:03.286Z,0.64
2019-03-16T06:22:03.233Z,0.55
2019-03-16T06:23:03.284Z,0.55
2019-03-16T06:24:03.188Z,0.49
2019-03-16T06:25:03.271Z,0.61
2019-03-16T06:26:02.987Z,0.52
2019-03-16T06:27:03.164Z,0.55
2019-03-16T06:28:03.049Z,0.59
2019-03-16T06:29:03.339Z,0.59
2019-03-16T06:30:03.184Z,0.61
2019-03-16T06:31:03.044Z,0.5
2019-03-16T06:32:02.784Z,0.5
2019-03-16T06:33:03.165Z,0.43
2019-03-16T06:34:02.883Z,0.4
2019-03-16T06:35:03.140Z,0.39
2019-03-16T06:36:02.843Z,0.42
2019-03-16T06:37:02.827Z,0.54
2019-03-16T06:38:03.386Z,0.54
2019-03-16T06:39:03.712Z,0.94
2019-03-16T06:40:02.888Z,0.57
2019-03-16T06:41:03.322Z,0.36
2019-03-16T06:42:02.843Z,0.46
2019-03-16T06:43:03.705Z,0.53
2019-03-16T06:44:04.022Z,1.8
2019-03-16T06:45:03.556Z,0.77
2019-03-16T06:46:03.000Z,0.48
2019-03-16T06:47:03.726Z,0.65
2019-03-16T06:48:03.456Z,0.63
2019-03-16T06:49:03.322Z,0.71
2019-03-16T06:50:03.288Z,0.45
2019-03-16T06:51:03.602Z,0.56
2019-03-16T06:52:03.367Z,0.77
2019-03-16T06:53:03.231Z,0.41
2019-03-16T06:54:03.248Z,0.54
2019-03-16T06:55:03.447Z,0.42
2019-03-16T06:56:03.110Z,0.59
2019-03-16T06:57:03.004Z,0.65
2019-03-16T06:58:03.351Z,0.66
2019-03-16T06:59:03.522Z,0.75
2019-03-16T07:00:03.478Z,0.72
2019-03-16T07:01:03.169Z,0.55
2019-03-16T07:02:03.372Z,0.58
2019-03-16T07:03:03.109Z,0.43
2019-03-16T07:04:03.546Z,0.76
2019-03-16T07:05:03.356Z,0.58
2019-03-16T07:06:03.323Z,0.56
2019-03-16T07:07:02.967Z,0.59
2019-03-16T07:08:03.515Z,0.59
2019-03-16T07:09:03.170Z,0.44
2019-03-16T07:10:03.469Z,0.41
2019-03-16T07:11:03.209Z,0.41
2019-03-16T07:12:03.497Z,0.6
2019-03-16T07:13:02.823Z,0.48
2019-03-16T07:14:03.263Z,0.48
2019-03-16T07:15:03.379Z,0.54
2019-03-16T07:16:03.023Z,0.51
2019-03-16T07:17:03.118Z,1.01
2019-03-16T07:18:03.142Z,0.45
2019-03-16T07:19:03.196Z,0.43
2019-03-16T07:20:03.055Z,0.7
2019-03-16T07:21:03.286Z,0.46
2019-03-16T07:22:02.859Z,0.48
2019-03-16T07:23:02.948Z,0.49
2019-03-16T07:24:03.143Z,0.59
2019-03-16T07:25:03.858Z,0.45
2019-03-16T07:26:15.232Z,0.41
2019-03-16T07:27:03.516Z,0.48
2019-03-16T07:28:02.808Z,0.69
2019-03-16T07:29:03.196Z,0.47
2019-03-16T07:30:02.680Z,0.61
2019-03-16T07:31:03.332Z,0.65
2019-03-16T07:32:03.209Z,0.52
2019-03-16T07:33:03.715Z,0.48
2019-03-16T07:34:02.960Z,0.41
2019-03-16T07:35:03.757Z,0.66
2019-03-16T07:36:02.793Z,0.54
2019-03-16T07:37:03.662Z,0.55
2019-03-16T07:38:03.500Z,0.59
2019-03-16T07:39:03.685Z,0.44
2019-03-16T07:40:03.526Z,0.57
2019-03-16T07:41:03.630Z,0.54
2019-03-16T07:42:03.500Z,0.71
2019-03-16T07:43:03.543Z,0.62
2019-03-16T07:44:03.252Z,0.57
2019-03-16T07:45:08.949Z,0.84
2019-03-16T07:46:03.446Z,0.56
2019-03-16T07:47:03.432Z,0.45
2019-03-16T07:48:03.884Z,0.42
2019-03-16T07:49:03.613Z,0.52
2019-03-16T07:50:03.459Z,0.34
2019-03-16T07:51:03.075Z,0.61
2019-03-16T07:52:02.839Z,0.61
2019-03-16T07:53:02.973Z,0.52
2019-03-16T07:54:03.194Z,0.58
2019-03-16T07:55:03.195Z,0.58
2019-03-16T07:56:03.086Z,0.56
2019-03-16T07:57:02.947Z,0.56
2019-03-16T07:58:02.860Z,0.46
2019-03-16T07:59:03.061Z,0.59
2019-03-16T08:00:02.928Z,0.41
2019-03-16T08:01:03.895Z,0.68
2019-03-16T08:02:02.852Z,0.59
2019-03-16T08:03:02.851Z,0.42
2019-03-16T08:04:03.612Z,0.43
2019-03-16T08:05:18.974Z,0.52
2019-03-16T08:06:03.328Z,0.71
2019-03-16T08:07:03.351Z,0.81
2019-03-16T08:08:03.282Z,0.49
2019-03-16T08:09:03.826Z,0.6
2019-03-16T08:10:03.683Z,0.74
2019-03-16T08:11:03.650Z,0.45
2019-03-16T08:12:03.516Z,0.41
2019-03-16T08:13:03.798Z,0.45
2019-03-16T08:14:03.696Z,0.5
2019-03-16T08:15:03.694Z,1.15
2019-03-16T08:16:03.455Z,0.71
2019-03-16T08:17:03.080Z,0.62
2019-03-16T08:18:03.323Z,0.51
2019-03-16T08:19:03.285Z,0.38
2019-03-16T08:20:03.477Z,0.57
2019-03-16T08:21:03.478Z,0.61
2019-03-16T08:22:03.083Z,0.84
2019-03-16T08:23:03.394Z,0.58
2019-03-16T08:24:03.385Z,0.59
2019-03-16T08:25:03.440Z,0.74
2019-03-16T08:26:03.351Z,0.51
2019-03-16T08:27:03.326Z,1.15
2019-03-16T08:28:03.052Z,0.59
2019-03-16T08:29:03.185Z,0.59
2019-03-16T08:30:03.292Z,0.41
2019-03-16T08:31:03.285Z,0.62
2019-03-16T08:32:02.889Z,0.62
2019-03-16T08:33:02.878Z,0.72
2019-03-16T08:34:03.012Z,1.02
2019-03-16T08:35:03.172Z,0.67
2019-03-16T08:36:02.878Z,0.6
2019-03-16T08:37:02.959Z,0.37
2019-03-16T08:38:02.914Z,0.37
2019-03-16T08:39:03.045Z,0.69
2019-03-16T08:40:02.766Z,0.69
2019-03-16T08:41:02.923Z,1.44
2019-03-16T08:42:02.873Z,0.74
2019-03-16T08:43:03.479Z,0.74
2019-03-16T08:44:03.760Z,0.63
2019-03-16T08:45:03.471Z,0.63
2019-03-16T08:46:03.568Z,0.65
2019-03-16T08:47:03.387Z,0.84
2019-03-16T08:48:03.492Z,0.64
2019-03-16T08:49:03.034Z,0.6
2019-03-16T08:50:03.489Z,0.67
2019-03-16T08:51:03.234Z,0.44
2019-03-16T08:52:03.368Z,0.62
2019-03-16T08:53:03.322Z,1.17
2019-03-16T08:54:03.484Z,0.68
2019-03-16T08:55:03.331Z,0.49
2019-03-16T08:56:03.073Z,0.71
2019-03-16T08:57:03.477Z,0.82
2019-03-16T08:58:06.570Z,0.74
2019-03-16T08:59:03.358Z,0.95
2019-03-16T09:00:03.404Z,0.88
2019-03-16T09:01:03.075Z,0.96
2019-03-16T09:02:02.797Z,1.13
2019-03-16T09:03:03.156Z,0.68
2019-03-16T09:04:03.005Z,0.65
2019-03-16T09:05:02.952Z,0.62
2019-03-16T09:06:02.616Z,0.73
2019-03-16T09:07:03.337Z,0.65
2019-03-16T09:08:03.049Z,0.74
2019-03-16T09:09:02.876Z,0.51
2019-03-16T09:10:03.140Z,0.5
2019-03-16T09:11:03.819Z,0.94
2019-03-16T09:12:03.090Z,0.8
2019-03-16T09:13:02.984Z,0.98
2019-03-16T09:14:02.865Z,0.82
2019-03-16T09:15:03.694Z,0.69
2019-03-16T09:16:02.875Z,0.73
2019-03-16T09:17:03.813Z,1.01
2019-03-16T09:18:03.379Z,0.75
2019-03-16T09:19:03.529Z,0.94
2019-03-16T09:20:03.382Z,1.1
2019-03-16T09:21:03.630Z,0.92
2019-03-16T09:22:03.697Z,0.78
2019-03-16T09:23:03.732Z,0.7
2019-03-16T09:24:03.599Z,0.91
2019-03-16T09:25:03.821Z,0.79
2019-03-16T09:26:03.409Z,0.68
2019-03-16T09:27:03.509Z,0.92
2019-03-16T09:28:03.318Z,1.08
2019-03-16T09:29:15.409Z,1.08
2019-03-16T09:30:03.461Z,0.86
2019-03-16T09:31:03.320Z,0.9
2019-03-16T09:32:03.384Z,0.9
2019-03-16T09:33:03.431Z,0.92
2019-03-16T09:34:03.245Z,0.93
2019-03-16T09:35:03.363Z,0.93
2019-03-16T09:36:03.401Z,0.66
2019-03-16T09:37:03.305Z,0.88
2019-03-16T09:38:05.520Z,0.73
2019-03-16T09:39:03.165Z,0.76
2019-03-16T09:40:03.385Z,0.84
2019-03-16T09:41:03.344Z,0.84
2019-03-16T09:42:03.234Z,0.89
2019-03-16T09:43:03.117Z,0.82
2019-03-16T09:44:03.190Z,0.66
2019-03-16T09:45:03.356Z,0.71
2019-03-16T09:46:02.943Z,1.09
2019-03-16T09:47:02.978Z,0.97
2019-03-16T09:48:02.760Z,1.06
2019-03-16T09:49:03.197Z,0.69
2019-03-16T09:50:03.049Z,0.85
2019-03-16T09:51:02.948Z,0.94
2019-03-16T09:52:02.952Z,1.03
2019-03-16T09:53:03.126Z,1.47
2019-03-16T09:54:02.794Z,1.21
2019-03-16T09:55:03.846Z,0.67
2019-03-16T09:56:03.338Z,0.78
2019-03-16T09:57:03.642Z,1.02
2019-03-16T09:58:03.529Z,0.84
2019-03-16T09:59:03.575Z,0.99
2019-03-16T10:00:03.741Z,0.85
2019-03-16T10:01:03.791Z,0.89
2019-03-16T10:02:03.636Z,0.8
2019-03-16T10:03:03.448Z,0.88
2019-03-16T10:04:03.703Z,0.91
2019-03-16T10:05:03.108Z,1.01
2019-03-16T10:06:03.578Z,0.84
2019-03-16T10:07:03.595Z,1.25
2019-03-16T10:08:03.244Z,1.02
2019-03-16T10:09:03.717Z,0.76
2019-03-16T10:10:03.474Z,0.78
2019-03-16T10:11:03.499Z,1.54
2019-03-16T10:12:03.130Z,0.64
2019-03-16T10:13:02.713Z,0.94
2019-03-16T10:14:02.973Z,0.85
2019-03-16T10:15:03.255Z,1.13
2019-03-16T10:16:03.100Z,0.79
2019-03-16T10:17:03.103Z,0.72
2019-03-16T10:18:02.826Z,0.93
2019-03-16T10:19:03.096Z,0.9
2019-03-16T10:20:02.986Z,1.01
2019-03-16T10:21:02.978Z,1.13
2019-03-16T10:22:03.148Z,0.86
2019-03-16T10:23:03.213Z,1.14
2019-03-16T10:24:03.019Z,1.14
2019-03-16T10:25:02.904Z,0.96
2019-03-16T10:26:03.584Z,0.78
2019-03-16T10:27:02.842Z,0.78
2019-03-16T10:28:03.195Z,1
2019-03-16T10:29:02.631Z,1.27
2019-03-16T10:30:03.720Z,1.06
2019-03-16T10:31:03.583Z,0.92
2019-03-16T10:32:02.971Z,0.89
2019-03-16T10:33:03.756Z,1.27
2019-03-16T10:34:03.612Z,0.75
2019-03-16T10:35:02.837Z,2.6
2019-03-16T10:36:03.551Z,0.82
2019-03-16T10:37:03.268Z,1.11
2019-03-16T10:38:03.596Z,1.72
2019-03-16T10:39:03.315Z,1.07
2019-03-16T10:40:03.384Z,1.39
2019-03-16T10:41:03.624Z,0.99
2019-03-16T10:42:03.329Z,1.24
2019-03-16T10:43:03.284Z,0.99
2019-03-16T10:44:03.675Z,1.06
2019-03-16T10:45:02.885Z,1.16
2019-03-16T10:46:03.259Z,1.55
2019-03-16T10:47:02.981Z,1.55
2019-03-16T10:48:03.371Z,0.82
2019-03-16T10:49:03.692Z,0.93
2019-03-16T10:50:03.382Z,0.94
2019-03-16T10:51:03.209Z,0.86
2019-03-16T10:52:03.421Z,1.02
2019-03-16T10:53:03.274Z,0.85
2019-03-16T10:54:03.108Z,1.31
2019-03-16T10:55:03.095Z,0.76
2019-03-16T10:56:02.988Z,0.94
2019-03-16T10:57:04.642Z,0.95
2019-03-16T10:58:03.036Z,0.87
2019-03-16T10:59:03.493Z,0.8
2019-03-16T11:00:03.124Z,0.72
2019-03-16T11:01:03.348Z,1.06
2019-03-16T11:02:03.169Z,0.94
2019-03-16T11:03:03.158Z,1.42
2019-03-16T11:04:03.206Z,1.54
2019-03-16T11:05:03.042Z,1.54
2019-03-16T11:06:02.846Z,1.46
2019-03-16T11:07:03.047Z,1.07
2019-03-16T11:08:02.663Z,1.07
2019-03-16T11:09:02.986Z,0.85
2019-03-16T11:10:03.049Z,0.85
2019-03-16T11:11:02.723Z,1.21
2019-03-16T11:12:02.709Z,0.99
2019-03-16T11:13:03.555Z,0.65
2019-03-16T11:14:03.300Z,1.43
2019-03-16T11:15:03.969Z,0.95
2019-03-16T11:16:03.569Z,1.13
2019-03-16T11:17:03.603Z,0.84
2019-03-16T11:18:03.742Z,0.86
2019-03-16T11:19:03.669Z,0.99
2019-03-16T11:20:03.543Z,1.01
2019-03-16T11:21:03.490Z,0.81
2019-03-16T11:22:03.470Z,0.82
2019-03-16T11:23:02.873Z,1.14
2019-03-16T11:24:03.342Z,0.79
2019-03-16T11:25:03.815Z,1
2019-03-16T11:26:03.479Z,1.12
2019-03-16T11:27:03.408Z,1.12
2019-03-16T11:28:03.442Z,1.26
2019-03-16T11:29:09.478Z,1.2
2019-03-16T11:30:03.553Z,1.17
2019-03-16T11:31:03.561Z,0.95
2019-03-16T11:32:03.463Z,1.79
2019-03-16T11:33:03.305Z,0.78
2019-03-16T11:34:03.506Z,0.99
2019-03-16T11:35:03.388Z,1.15
2019-03-16T11:36:03.190Z,1.28
2019-03-16T11:37:03.234Z,1.11
2019-03-16T11:38:03.163Z,1.29
2019-03-16T11:39:03.190Z,1.59
2019-03-16T11:40:03.143Z,1.11
2019-03-16T11:41:03.322Z,1.36
2019-03-16T11:42:02.788Z,1.02
2019-03-16T11:43:03.168Z,0.93
2019-03-16T11:44:03.006Z,0.98
2019-03-16T11:45:03.064Z,1.14
2019-03-16T11:46:02.952Z,1.24
2019-03-16T11:47:02.855Z,1.19
2019-03-16T11:48:02.799Z,1.19
2019-03-16T11:49:03.007Z,0.94
2019-03-16T11:50:03.369Z,1.06
2019-03-16T11:51:02.964Z,0.91
2019-03-16T11:52:03.727Z,1.1
2019-03-16T11:53:03.519Z,1.1
2019-03-16T11:54:02.985Z,0.75
2019-03-16T11:55:03.642Z,0.98
2019-03-16T11:56:03.773Z,0.98
2019-03-16T11:57:03.364Z,1.09
2019-03-16T11:58:02.791Z,1.09
2019-03-16T11:59:03.333Z,0.95
2019-03-16T12:00:03.802Z,0.85
2019-03-16T12:01:03.748Z,0.94
2019-03-16T12:02:05.834Z,1.02
2019-03-16T12:03:03.581Z,1.15
2019-03-16T12:04:03.617Z,0.84
2019-03-16T12:05:03.779Z,1.25
2019-03-16T12:06:03.439Z,1.04
2019-03-16T12:07:03.579Z,1.19
2019-03-16T12:08:03.249Z,1.16
2019-03-16T12:09:03.442Z,1.19
2019-03-16T12:10:03.441Z,1.04
2019-03-16T12:11:03.273Z,0.99
2019-03-16T12:12:02.879Z,1.18
2019-03-16T12:13:03.007Z,1.35
2019-03-16T12:14:03.334Z,1.66
2019-03-16T12:15:03.491Z,1.23
2019-03-16T12:16:03.406Z,1.49
2019-03-16T12:17:03.347Z,1.35
2019-03-16T12:18:03.469Z,2.32
2019-03-16T12:19:02.903Z,1.69
2019-03-16T12:20:03.411Z,1.11
2019-03-16T12:21:03.061Z,1.47
2019-03-16T12:22:03.412Z,2.76
2019-03-16T12:23:03.063Z,1.36
2019-03-16T12:24:03.060Z,0.9
2019-03-16T12:25:03.078Z,0.73
2019-03-16T12:26:02.518Z,0.94
2019-03-16T12:27:03.012Z,1.02
2019-03-16T12:28:03.090Z,1.28
2019-03-16T12:29:03.052Z,0.86
2019-03-16T12:30:03.224Z,1.37
2019-03-16T12:31:02.882Z,0.89
2019-03-16T12:32:02.802Z,0.77
2019-03-16T12:33:03.266Z,0.86
2019-03-16T12:34:02.729Z,0.78
2019-03-16T12:35:03.072Z,0.74
2019-03-16T12:36:02.981Z,0.87
2019-03-16T12:37:03.805Z,0.72
2019-03-16T12:38:03.214Z,2.02
2019-03-16T12:39:03.611Z,1.28
2019-03-16T12:40:02.829Z,1.65
2019-03-16T12:41:02.839Z,1.65
2019-03-16T12:42:02.672Z,0.75
2019-03-16T12:43:02.808Z,0.75
2019-03-16T12:44:02.526Z,1.19
2019-03-16T12:45:03.118Z,0.81
2019-03-16T12:46:03.661Z,1.49
2019-03-16T12:47:03.678Z,1.58
2019-03-16T12:48:03.534Z,0.72
2019-03-16T12:49:03.372Z,0.86
2019-03-16T12:50:03.287Z,0.82
2019-03-16T12:51:03.700Z,0.69
2019-03-16T12:52:03.573Z,0.78
2019-03-16T12:53:02.866Z,0.63
2019-03-16T12:54:03.609Z,0.99
2019-03-16T12:55:03.763Z,0.82
2019-03-16T12:56:03.526Z,0.78
2019-03-16T12:57:03.361Z,0.75
2019-03-16T12:58:03.409Z,0.67
2019-03-16T12:59:11.049Z,1.08
2019-03-16T13:00:03.060Z,0.88
2019-03-16T13:01:03.200Z,0.69
2019-03-16T13:02:03.398Z,0.76
2019-03-16T13:03:03.351Z,0.78
2019-03-16T13:04:03.431Z,0.96
2019-03-16T13:05:03.293Z,0.79
2019-03-16T13:06:03.574Z,1.12
2019-03-16T13:07:03.230Z,0.69
2019-03-16T13:08:03.358Z,0.81
2019-03-16T13:09:03.509Z,1.05
2019-03-16T13:10:03.098Z,1.19
2019-03-16T13:11:03.328Z,0.69
2019-03-16T13:12:03.243Z,1.45
2019-03-16T13:13:03.378Z,1.29
2019-03-16T13:14:03.473Z,0.91
2019-03-16T13:15:03.293Z,0.96
2019-03-16T13:16:03.113Z,0.81
2019-03-16T13:17:03.406Z,0.74
2019-03-16T13:18:03.191Z,0.8
2019-03-16T13:19:03.797Z,0.73
2019-03-16T13:20:03.062Z,1
2019-03-16T13:21:02.391Z,0.8